createdAt,value
2022-11-07T00:04:08.374Z,100373.19
2022-11-07T00:15:13.412Z,100374.09
2022-11-07T01:50:24.660Z,100339.31
2022-11-07T02:28:08.431Z,100339.63
2022-11-07T02:48:32.725Z,100344.16
2022-11-07T02:59:32.468Z,100334.47
2022-11-07T03:01:59.623Z,100342.09
2022-11-07T03:04:26.845Z,100334.13
2022-11-07T03:11:21.402Z,100343.69
2022-11-07T03:13:49.963Z,100341.00
2022-11-07T03:16:18.461Z,100342.22
2022-11-07T03:18:45.541Z,100347.47
2022-11-07T03:21:12.767Z,100350.78
2022-11-07T03:27:51.472Z,100359.59
2022-11-07T03:35:29.267Z,100372.59
2022-11-07T03:42:20.484Z,100374.50
2022-11-07T03:44:47.673Z,100380.69
2022-11-07T03:47:14.788Z,100385.78
2022-11-07T03:49:41.962Z,100381.38
2022-11-07T03:52:09.172Z,100386.53
2022-11-07T03:58:49.650Z,100390.44
2022-11-07T04:01:16.805Z,100393.22
2022-11-07T04:03:44.015Z,100392.47
2022-11-07T04:19:26.495Z,100388.88
2022-11-07T04:34:46.643Z,100388.84
2022-11-07T04:37:13.746Z,100400.03
2022-11-07T04:39:40.855Z,100398.06
2022-11-07T04:46:32.659Z,100394.78
2022-11-07T04:48:59.783Z,100403.50
2022-11-07T04:51:27.688Z,100409.59
2022-11-07T04:53:54.815Z,100414.75
2022-11-07T04:56:22.082Z,100413.50
2022-11-07T04:58:49.235Z,100411.13
2022-11-07T05:40:05.411Z,100436.97
2022-11-07T05:42:32.527Z,100438.44
2022-11-07T06:23:44.637Z,100489.84
2022-11-07T06:26:11.808Z,100485.84
2022-11-07T06:50:20.923Z,100486.28
2022-11-07T06:52:48.068Z,100502.03
2022-11-07T06:55:15.355Z,100498.06
2022-11-07T06:57:42.467Z,100502.59
2022-11-07T07:00:10.174Z,100487.72
2022-11-07T07:02:57.351Z,100499.13
2022-11-07T07:05:24.747Z,100497.34
2022-11-07T07:07:52.074Z,100501.53
2022-11-07T07:10:19.435Z,100504.06
2022-11-07T07:12:46.692Z,100509.31
2022-11-07T07:15:13.973Z,100515.16
2022-11-07T07:17:41.164Z,100515.09
2022-11-07T07:20:08.959Z,100518.47
2022-11-07T07:22:36.133Z,100514.25
2022-11-07T07:25:03.305Z,100517.72
2022-11-07T07:27:30.517Z,100522.13
2022-11-07T07:29:57.776Z,100530.00
2022-11-07T07:32:25.226Z,100526.34
2022-11-07T07:34:52.514Z,100519.50
2022-11-07T07:37:19.610Z,100524.06
2022-11-07T07:39:46.738Z,100523.78
2022-11-07T07:42:13.845Z,100520.25
2022-11-07T07:44:40.960Z,100525.59
2022-11-07T07:47:11.232Z,100530.94
2022-11-07T07:49:38.981Z,100520.59
2022-11-07T07:52:06.227Z,100522.13
2022-11-07T07:54:33.326Z,100518.53
2022-11-07T07:57:01.522Z,100528.09
2022-11-07T07:59:28.702Z,100525.28
2022-11-07T08:01:57.383Z,100532.00
2022-11-07T08:04:24.769Z,100518.69
2022-11-07T08:06:51.889Z,100515.91
2022-11-07T08:09:19.019Z,100517.44
2022-11-07T08:11:46.097Z,100524.13
2022-11-07T08:14:13.246Z,100523.72
2022-11-07T08:16:40.386Z,100532.09
2022-11-07T08:19:07.517Z,100532.88
2022-11-07T08:21:34.700Z,100541.09
2022-11-07T08:24:03.382Z,100537.47
2022-11-07T08:26:31.324Z,100535.69
2022-11-07T08:28:58.573Z,100533.47
2022-11-07T08:31:25.703Z,100532.28
2022-11-07T08:33:52.968Z,100525.06
2022-11-07T08:36:20.132Z,100534.56
2022-11-07T08:38:47.287Z,100541.91
2022-11-07T08:41:18.334Z,100529.38
2022-11-07T08:43:49.269Z,100535.97
2022-11-07T08:46:16.435Z,100542.50
2022-11-07T08:48:43.669Z,100531.88
2022-11-07T08:51:10.789Z,100541.44
2022-11-07T08:53:37.909Z,100527.84
2022-11-07T08:56:08.226Z,100541.06
2022-11-07T08:58:36.238Z,100531.13
2022-11-07T09:01:07.625Z,100556.56
2022-11-07T09:03:57.558Z,100541.63
2022-11-07T09:06:23.566Z,100539.50
2022-11-07T09:08:50.819Z,100542.00
2022-11-07T09:11:19.119Z,100551.47
2022-11-07T09:13:49.331Z,100537.31
2022-11-07T09:16:20.026Z,100545.09
2022-11-07T09:18:48.148Z,100540.41
2022-11-07T09:21:21.768Z,100543.88
2022-11-07T09:23:50.761Z,100547.00
2022-11-07T09:26:17.943Z,100550.59
2022-11-07T09:28:50.936Z,100543.34
2022-11-07T09:31:19.414Z,100539.41
2022-11-07T09:33:46.564Z,100549.78
2022-11-07T09:36:13.702Z,100553.34
2022-11-07T09:38:40.910Z,100550.44
2022-11-07T09:41:44.054Z,100549.94
2022-11-07T09:44:13.376Z,100544.03
2022-11-07T09:46:59.386Z,100559.19
2022-11-07T09:49:29.487Z,100561.91
2022-11-07T09:52:03.788Z,100550.88
2022-11-07T09:54:34.023Z,100555.94
2022-11-07T09:57:02.142Z,100560.19
2022-11-07T09:59:38.212Z,100556.50
2022-11-07T10:02:14.189Z,100560.25
2022-11-07T10:04:41.876Z,100559.38
2022-11-07T10:07:20.313Z,100565.13
2022-11-07T10:09:59.219Z,100549.88
2022-11-07T10:12:52.472Z,100554.13
2022-11-07T10:15:28.470Z,100559.50
2022-11-07T10:18:07.388Z,100547.31
2022-11-07T10:21:31.011Z,100565.16
2022-11-07T10:24:23.840Z,100548.94
2022-11-07T10:26:51.015Z,100544.50
2022-11-07T10:29:24.304Z,100552.97
2022-11-07T10:31:58.112Z,100568.09
2022-11-07T10:34:36.811Z,100553.84
2022-11-07T10:37:04.486Z,100562.00
2022-11-07T10:39:32.087Z,100555.00
2022-11-07T10:42:02.698Z,100559.34
2022-11-07T10:44:29.940Z,100546.16
2022-11-07T10:46:57.071Z,100549.81
2022-11-07T10:49:30.263Z,100551.28
2022-11-07T10:52:08.678Z,100550.63
2022-11-07T10:54:36.036Z,100545.72
2022-11-07T10:57:16.291Z,100546.53
2022-11-07T10:59:56.224Z,100554.31
2022-11-07T11:02:25.818Z,100551.84
2022-11-07T11:05:02.532Z,100542.00
2022-11-07T11:07:40.653Z,100540.59
2022-11-07T11:10:28.607Z,100538.25
2022-11-07T11:12:56.365Z,100540.81
2022-11-07T11:15:25.210Z,100541.59
2022-11-07T11:18:00.654Z,100542.72
2022-11-07T11:20:27.862Z,100546.34
2022-11-07T11:22:55.164Z,100531.19
2022-11-07T11:25:23.821Z,100533.84
2022-11-07T11:27:55.604Z,100534.31
2022-11-07T11:30:22.786Z,100545.19
2022-11-07T11:33:11.562Z,100532.63
2022-11-07T11:35:42.449Z,100528.78
2022-11-07T11:38:29.608Z,100542.41
2022-11-07T11:41:10.311Z,100531.81
2022-11-07T11:43:48.130Z,100527.97
2022-11-07T11:46:24.359Z,100536.22
2022-11-07T11:49:00.689Z,100532.25
2022-11-07T11:51:30.692Z,100536.31
2022-11-07T11:53:57.811Z,100525.50
2022-11-07T11:56:39.366Z,100537.34
2022-11-07T11:59:15.766Z,100528.94
2022-11-07T12:01:54.708Z,100535.84
2022-11-07T12:04:40.594Z,100533.25
2022-11-07T12:07:10.256Z,100523.47
2022-11-07T12:09:48.579Z,100522.81
2022-11-07T12:12:55.946Z,100529.06
2022-11-07T12:15:23.020Z,100519.94
2022-11-07T12:18:19.478Z,100517.63
2022-11-07T12:20:52.585Z,100520.53
2022-11-07T12:23:52.109Z,100518.41
2022-11-07T12:26:29.058Z,100520.41
2022-11-07T12:29:28.628Z,100523.13
2022-11-07T12:32:14.343Z,100523.50
2022-11-07T12:35:02.735Z,100523.84
2022-11-07T12:38:08.373Z,100515.69
2022-11-07T12:40:47.362Z,100524.50
2022-11-07T12:43:20.356Z,100518.06
2022-11-07T12:46:19.453Z,100530.47
2022-11-07T12:48:49.104Z,100530.94
2022-11-07T12:51:34.107Z,100532.22
2022-11-07T12:54:21.607Z,100528.19
2022-11-07T12:56:49.470Z,100529.63
2022-11-07T12:59:26.642Z,100530.53
2022-11-07T13:02:02.936Z,100525.06
2022-11-07T13:04:38.766Z,100522.41
2022-11-07T13:07:30.776Z,100528.50
2022-11-07T13:10:19.882Z,100529.34
2022-11-07T13:13:12.537Z,100530.59
2022-11-07T13:16:09.100Z,100559.38
2022-11-07T13:18:28.677Z,100539.41
2022-11-07T13:21:03.175Z,100540.22
2022-11-07T13:23:30.454Z,100530.72
2022-11-07T13:25:59.606Z,100546.34
2022-11-07T13:28:35.861Z,100537.34
2022-11-07T13:31:07.581Z,100537.91
2022-11-07T13:33:35.936Z,100544.31
2022-11-07T13:36:15.361Z,100544.44
2022-11-07T13:38:54.321Z,100534.91
2022-11-07T13:41:22.652Z,100531.78
2022-11-07T13:43:58.311Z,100545.50
2022-11-07T13:46:29.782Z,100548.84
2022-11-07T13:49:01.012Z,100554.81
2022-11-07T14:09:18.049Z,100544.59
2022-11-07T14:11:46.120Z,100539.84
2022-11-07T14:41:26.865Z,100524.50
2022-11-07T14:44:02.783Z,100528.94
2022-11-07T15:05:10.655Z,100513.75
2022-11-07T15:07:46.931Z,100526.00
2022-11-07T15:10:24.786Z,100515.75
2022-11-07T15:12:55.069Z,100522.41
2022-11-07T15:15:24.377Z,100514.81
2022-11-07T15:17:53.691Z,100523.69
2022-11-07T15:20:35.921Z,100521.50
2022-11-07T15:23:13.725Z,100526.66
2022-11-07T15:25:50.819Z,100525.81
2022-11-07T15:28:18.386Z,100511.44
2022-11-07T15:30:47.515Z,100526.44
2022-11-07T15:33:18.939Z,100522.34
2022-11-07T16:17:51.794Z,100537.56
2022-11-07T16:20:22.977Z,100546.13
2022-11-07T16:22:50.810Z,100544.13
2022-11-07T17:41:32.170Z,100588.34
2022-11-07T17:57:08.917Z,100595.00
2022-11-07T18:46:45.929Z,100624.06
2022-11-07T18:49:14.175Z,100610.19
2022-11-07T18:51:43.899Z,100611.03
2022-11-07T19:51:39.256Z,100624.00
2022-11-07T22:37:40.024Z,100667.00
2022-11-07T22:44:25.379Z,100662.09
2022-11-07T22:51:17.326Z,100653.06
2022-11-07T23:19:36.312Z,100659.94
2022-11-07T23:58:25.971Z,100635.56
